Terminal Aerodrome Forecast
Issued by NWS

Home | Current Version | Previous Version | Text Only | Print | Product List | Glossary Off
Versions: 1 2 3 4 5 6 7 8 9 10 11 12 13 14 15 16 17 18 19 20 21 22 23 24 25 26 27 28 29 30 31 32 33 34 35 36 37 38 39 40 41 42 43 44

000
FTUS43 KLOT 050858 AAA
TAFORD
TAF AMD
KORD 050858Z 0509/0612 04007KT 4SM -SHRA VCTS BKN020CB OVC040
     FM051200 09010KT 3SM -SHRA BR OVC010
     FM051800 07011KT P6SM BKN010 BKN050 PROB30 0520/0524 -SHRA
     FM060200 08007KT P6SM BKN015 BKN050=

USA.gov is the U.S. government's official web portal to all federal, state and local government web resources and services.